Time;durP1;ratioP1;P1;durP2;ratioP2;P2;SDS_P1;SDS_P2;PMS_P1;PMS_P2;Temp;Humidity;BMP_temperature;BMP_pressure;BME280_temperature;BME280_humidity;BME280_pressure;Samples;Min_cycle;Max_cycle;Signal;HPM_P1;HPM_P2
2023/09/21 00:00:50;;;;;;;;;;;24.70;56.00;;;;;;5056502;28;20411;-67
2023/09/21 00:03:17;;;;;;;;;;;24.70;56.00;;;;;;5056679;28;19978;-62
2023/09/21 00:05:47;;;;;;;;;;;24.70;56.00;;;;;;5056593;28;19925;-62
2023/09/21 00:08:14;;;;;;;;;;;24.70;56.00;;;;;;5055861;28;19924;-62
2023/09/21 00:10:41;;;;;;;;;;;24.70;56.00;;;;;;5056558;28;19986;-62
2023/09/21 00:13:09;;;;;;;;;;;24.70;56.00;;;;;;5055668;28;19990;-62
2023/09/21 00:15:36;;;;;;;;;;;24.70;56.00;;;;;;5056131;28;19932;-62
2023/09/21 00:18:05;;;;;;;;;;;24.70;56.00;;;;;;5056090;28;19929;-62
2023/09/21 00:20:42;;;;;;;;;;;24.70;56.00;;;;;;5055934;28;20029;-62
2023/09/21 00:23:09;;;;;;;;;;;24.70;56.00;;;;;;5056050;28;20020;-62
2023/09/21 00:25:37;;;;;;;;;;;24.70;56.00;;;;;;5055943;28;19925;-62
2023/09/21 00:28:07;;;;;;;;;;;24.70;56.00;;;;;;5056268;28;19925;-62
2023/09/21 00:30:35;;;;;;;;;;;24.70;56.00;;;;;;5055295;28;19932;-62
2023/09/21 00:33:02;;;;;;;;;;;24.70;56.00;;;;;;5055753;28;19924;-62
2023/09/21 00:35:29;;;;;;;;;;;24.80;56.10;;;;;;5055291;28;20023;-62
2023/09/21 00:37:57;;;;;;;;;;;24.80;56.00;;;;;;5055220;28;20093;-62
2023/09/21 00:40:24;;;;;;;;;;;24.70;55.90;;;;;;5054860;28;19925;-62
2023/09/21 00:42:55;;;;;;;;;;;24.80;55.90;;;;;;5055282;28;19978;-62
2023/09/21 00:45:22;;;;;;;;;;;24.80;55.80;;;;;;5055916;28;19933;-62
2023/09/21 00:47:50;;;;;;;;;;;24.80;55.80;;;;;;5054397;28;19938;-62
2023/09/21 00:50:21;;;;;;;;;;;24.80;55.80;;;;;;5055635;28;19924;-62
2023/09/21 00:52:51;;;;;;;;;;;24.80;55.70;;;;;;5055456;28;19979;-62
2023/09/21 00:55:23;;;;;;;;;;;24.80;55.70;;;;;;5055463;28;19924;-61
2023/09/21 00:57:59;;;;;;;;;;;24.80;55.80;;;;;;5055533;28;19986;-62
2023/09/21 01:00:27;;;;;;;;;;;24.80;55.80;;;;;;5055404;28;20327;-62
2023/09/21 01:02:54;;;;;;;;;;;24.80;55.80;;;;;;5054949;28;19925;-62
2023/09/21 01:05:21;;;;;;;;;;;24.80;55.80;;;;;;5055123;28;19928;-62
2023/09/21 01:07:50;;;;;;;;;;;24.80;55.90;;;;;;5054988;28;19924;-62
2023/09/21 01:10:22;;;;;;;;;;;24.80;55.90;;;;;;5054964;28;19924;-62
2023/09/21 01:12:51;;;;;;;;;;;24.80;55.90;;;;;;5069999;28;19978;-62
2023/09/21 01:15:18;;;;;;;;;;;24.80;55.90;;;;;;5070173;28;20019;-62
2023/09/21 01:17:45;;;;;;;;;;;24.80;55.90;;;;;;5054489;28;20385;-62
2023/09/21 01:20:15;;;;;;;;;;;24.80;56.00;;;;;;5054441;28;20365;-62
2023/09/21 01:22:44;;;;;;;;;;;24.70;55.90;;;;;;5054731;28;19924;-62
2023/09/21 01:25:14;;;;;;;;;;;24.80;56.00;;;;;;5054991;28;19925;-62
2023/09/21 01:27:42;;;;;;;;;;;24.70;55.90;;;;;;5055048;28;19924;-62
2023/09/21 01:30:12;;;;;;;;;;;24.80;56.00;;;;;;5054929;28;19968;-61
2023/09/21 01:32:40;;;;;;;;;;;24.70;56.00;;;;;;5054506;28;20261;-62
2023/09/21 01:35:08;;;;;;;;;;;24.70;56.00;;;;;;5054950;28;20020;-62
2023/09/21 01:37:35;;;;;;;;;;;24.70;56.00;;;;;;5053619;28;19925;-62
2023/09/21 01:40:10;;;;;;;;;;;24.70;56.00;;;;;;5054274;28;19955;-62
2023/09/21 01:42:37;;;;;;;;;;;24.70;56.00;;;;;;5054470;28;19925;-62
2023/09/21 01:45:08;;;;;;;;;;;24.70;56.00;;;;;;5054675;28;19928;-62
2023/09/21 01:47:36;;;;;;;;;;;24.80;56.00;;;;;;5054412;28;20023;-62
2023/09/21 01:50:11;;;;;;;;;;;24.80;55.90;;;;;;5054722;28;19925;-62
2023/09/21 01:52:38;;;;;;;;;;;24.80;55.90;;;;;;5054226;28;19925;-62
2023/09/21 01:55:06;;;;;;;;;;;24.80;55.90;;;;;;5054614;28;19964;-62
2023/09/21 01:57:34;;;;;;;;;;;24.80;55.80;;;;;;5053779;28;19928;-62
2023/09/21 02:00:11;;;;;;;;;;;24.80;55.80;;;;;;5069589;28;20373;-62
2023/09/21 02:02:39;;;;;;;;;;;24.80;55.70;;;;;;5054305;28;19925;-62
2023/09/21 02:05:11;;;;;;;;;;;24.80;55.70;;;;;;5053978;28;19925;-62
2023/09/21 02:07:39;;;;;;;;;;;24.80;55.70;;;;;;5053752;28;20403;-62
2023/09/21 02:10:10;;;;;;;;;;;24.80;55.70;;;;;;5068008;28;19925;-62
2023/09/21 02:12:38;;;;;;;;;;;24.80;55.70;;;;;;5054560;28;20316;-62
2023/09/21 02:15:11;;;;;;;;;;;24.80;55.70;;;;;;5054078;28;20293;-62
2023/09/21 02:17:41;;;;;;;;;;;24.80;55.70;;;;;;5053894;28;19924;-62
2023/09/21 02:20:14;;;;;;;;;;;24.80;55.80;;;;;;5052915;28;19959;-62
2023/09/21 02:22:44;;;;;;;;;;;24.80;55.80;;;;;;5068630;28;19971;-62
2023/09/21 02:25:12;;;;;;;;;;;24.80;55.90;;;;;;5069509;28;19948;-62
2023/09/21 02:27:47;;;;;;;;;;;24.70;55.80;;;;;;5053042;28;19925;-61
2023/09/21 02:30:16;;;;;;;;;;;24.80;55.90;;;;;;5052666;28;20335;-61
2023/09/21 02:32:44;;;;;;;;;;;24.70;55.80;;;;;;5053644;28;20369;-61
2023/09/21 02:35:15;;;;;;;;;;;24.70;55.80;;;;;;5068641;28;19925;-61
2023/09/21 02:37:44;;;;;;;;;;;24.70;55.90;;;;;;5053123;28;19978;-61
2023/09/21 02:40:14;;;;;;;;;;;24.70;55.90;;;;;;5053898;28;20285;-61
2023/09/21 02:42:45;;;;;;;;;;;24.70;55.90;;;;;;5053409;28;19929;-61
2023/09/21 02:45:12;;;;;;;;;;;24.70;55.90;;;;;;5053409;28;19925;-61
2023/09/21 02:47:41;;;;;;;;;;;24.70;55.90;;;;;;5053283;28;19924;-61
2023/09/21 02:50:14;;;;;;;;;;;24.70;56.00;;;;;;5053447;28;19924;-61
2023/09/21 02:52:45;;;;;;;;;;;24.70;56.00;;;;;;5053576;28;19925;-61
2023/09/21 02:55:20;;;;;;;;;;;24.70;56.00;;;;;;5053679;28;20361;-61
2023/09/21 02:57:54;;;;;;;;;;;24.70;56.00;;;;;;5052793;28;19925;-61
2023/09/21 03:00:28;;;;;;;;;;;24.70;56.00;;;;;;5053070;28;19925;-61
2023/09/21 03:03:00;;;;;;;;;;;24.70;56.00;;;;;;5053090;28;19924;-61
2023/09/21 03:05:28;;;;;;;;;;;24.70;56.00;;;;;;5053588;28;20301;-61
2023/09/21 03:07:56;;;;;;;;;;;24.70;55.90;;;;;;5053068;28;19924;-61
2023/09/21 03:10:26;;;;;;;;;;;24.70;55.90;;;;;;5053045;28;19924;-61
2023/09/21 03:12:53;;;;;;;;;;;24.70;55.80;;;;;;5053143;28;19924;-61
2023/09/21 03:15:20;;;;;;;;;;;24.70;55.80;;;;;;5032966;28;19937;-61
2023/09/21 03:17:49;;;;;;;;;;;24.70;55.80;;;;;;5032441;28;19932;-61
2023/09/21 03:20:32;;;;;;;;;;;24.70;56.30;;;;;;5033666;28;19947;-61
2023/09/21 03:23:04;;;;;;;;;;;24.70;55.80;;;;;;5036382;28;19975;-61
2023/09/21 03:25:32;;;;;;;;;;;24.70;55.80;;;;;;5037332;28;19933;-61
2023/09/21 03:28:01;;;;;;;;;;;24.70;55.70;;;;;;5037270;28;19929;-61
2023/09/21 03:30:28;;;;;;;;;;;24.70;55.80;;;;;;5036745;28;19947;-61
2023/09/21 03:32:55;;;;;;;;;;;24.70;55.80;;;;;;5036611;28;19925;-61
2023/09/21 03:35:26;;;;;;;;;;;24.70;55.80;;;;;;5036868;28;20043;-61
2023/09/21 03:37:53;;;;;;;;;;;24.70;55.80;;;;;;5035901;28;20389;-61
2023/09/21 03:40:20;;;;;;;;;;;24.70;55.90;;;;;;5035631;28;19929;-61
2023/09/21 03:42:48;;;;;;;;;;;24.70;55.90;;;;;;5053447;28;19933;-61
2023/09/21 03:45:16;;;;;;;;;;;24.70;55.90;;;;;;5056736;28;19925;-62
2023/09/21 03:47:43;;;;;;;;;;;24.70;56.00;;;;;;5056315;28;20443;-62
2023/09/21 03:50:12;;;;;;;;;;;24.70;56.00;;;;;;5056063;28;20011;-61
2023/09/21 03:52:40;;;;;;;;;;;24.70;56.00;;;;;;5071921;28;19925;-61
2023/09/21 03:55:09;;;;;;;;;;;24.70;56.00;;;;;;5055439;28;19928;-61
2023/09/21 03:57:37;;;;;;;;;;;24.70;56.00;;;;;;5056344;28;19925;-62
2023/09/21 04:00:21;;;;;;;;;;;24.70;56.00;;;;;;5056539;28;19924;-61
2023/09/21 04:02:48;;;;;;;;;;;24.70;56.00;;;;;;5056198;28;19963;-64
2023/09/21 04:05:18;;;;;;;;;;;24.70;56.10;;;;;;5055731;28;19982;-62
2023/09/21 04:07:46;;;;;;;;;;;24.70;56.00;;;;;;5055108;28;19972;-61
2023/09/21 04:10:13;;;;;;;;;;;24.70;56.00;;;;;;5056058;28;20004;-61
2023/09/21 04:12:40;;;;;;;;;;;24.70;56.00;;;;;;5055939;28;19925;-61
2023/09/21 04:15:08;;;;;;;;;;;24.70;56.60;;;;;;5055899;28;19925;-61
2023/09/21 04:17:35;;;;;;;;;;;24.70;56.00;;;;;;5056418;28;19970;-62
2023/09/21 04:20:10;;;;;;;;;;;24.70;56.00;;;;;;5056440;28;19928;-61
2023/09/21 04:22:38;;;;;;;;;;;24.70;56.00;;;;;;5055386;28;19925;-62
2023/09/21 04:25:07;;;;;;;;;;;24.70;56.00;;;;;;5055585;28;19976;-61
2023/09/21 04:27:36;;;;;;;;;;;24.70;56.00;;;;;;5056178;28;20340;-62
2023/09/21 04:30:03;;;;;;;;;;;24.70;55.90;;;;;;5056019;28;19924;-61
2023/09/21 04:32:30;;;;;;;;;;;24.70;55.90;;;;;;5055184;28;19974;-62
2023/09/21 04:34:58;;;;;;;;;;;24.70;55.80;;;;;;5056032;28;20004;-61
2023/09/21 04:37:28;;;;;;;;;;;24.70;55.80;;;;;;5054403;28;19929;-61
2023/09/21 04:39:55;;;;;;;;;;;24.60;56.00;;;;;;5057176;28;19932;-61
2023/09/21 04:42:22;;;;;;;;;;;24.50;56.00;;;;;;5057755;28;19951;-62
2023/09/21 04:44:49;;;;;;;;;;;24.50;56.30;;;;;;5052541;28;19979;-61
2023/09/21 04:47:16;;;;;;;;;;;24.20;56.50;;;;;;5054884;28;20354;-62
2023/09/21 04:49:43;;;;;;;;;;;24.00;55.30;;;;;;5055691;28;20335;-61
2023/09/21 04:52:10;;;;;;;;;;;23.70;53.80;;;;;;5055309;28;19924;-61
2023/09/21 04:54:39;;;;;;;;;;;23.40;53.10;;;;;;5044229;28;19925;-61
2023/09/21 04:57:06;;;;;;;;;;;23.10;52.40;;;;;;5042602;28;20314;-61
2023/09/21 04:59:33;;;;;;;;;;;22.80;51.70;;;;;;5037939;28;19925;-62
2023/09/21 05:01:59;;;;;;;;;;;22.50;51.60;;;;;;5037546;28;19976;-61
2023/09/21 05:04:26;;;;;;;;;;;22.20;52.80;;;;;;5040017;28;20336;-61
2023/09/21 05:06:54;;;;;;;;;;;21.90;53.30;;;;;;5044015;28;19925;-61
2023/09/21 05:09:21;;;;;;;;;;;21.60;53.60;;;;;;5044754;28;19933;-61
2023/09/21 05:11:52;;;;;;;;;;;21.30;52.60;;;;;;5044448;28;19929;-60
2023/09/21 05:14:21;;;;;;;;;;;21.00;52.80;;;;;;5047522;28;19928;-64
2023/09/21 05:16:48;;;;;;;;;;;20.80;54.20;;;;;;5058730;28;19928;-63
2023/09/21 05:19:15;;;;;;;;;;;20.60;54.60;;;;;;5048302;28;20317;-62
2023/09/21 05:21:43;;;;;;;;;;;20.40;53.10;;;;;;5053030;28;19959;-67
2023/09/21 05:24:10;;;;;;;;;;;20.30;52.40;;;;;;5053718;28;19940;-66
2023/09/21 05:26:38;;;;;;;;;;;20.20;52.30;;;;;;5047468;28;20333;-68
2023/09/21 05:29:05;;;;;;;;;;;20.10;53.90;;;;;;5040188;28;19933;-67
2023/09/21 05:31:35;;;;;;;;;;;20.00;55.00;;;;;;5043116;28;19929;-68
2023/09/21 05:34:02;;;;;;;;;;;20.00;54.50;;;;;;5047571;28;19933;-66
2023/09/21 05:36:29;;;;;;;;;;;19.90;52.90;;;;;;5054445;28;20055;-67
2023/09/21 05:38:56;;;;;;;;;;;19.80;53.70;;;;;;5045096;28;19943;-66
2023/09/21 05:41:24;;;;;;;;;;;19.80;53.20;;;;;;5045769;28;20385;-66
2023/09/21 05:43:52;;;;;;;;;;;19.80;52.80;;;;;;5044167;28;20267;-65
2023/09/21 05:46:21;;;;;;;;;;;19.70;53.60;;;;;;5047794;28;20348;-67
2023/09/21 05:48:48;;;;;;;;;;;19.70;54.20;;;;;;5044327;28;19925;-66
2023/09/21 05:51:17;;;;;;;;;;;19.70;53.70;;;;;;5044689;28;19924;-65
2023/09/21 05:53:45;;;;;;;;;;;19.70;53.60;;;;;;5044210;28;19933;-66
2023/09/21 05:56:13;;;;;;;;;;;19.70;54.40;;;;;;5045485;28;19955;-68
2023/09/21 05:58:40;;;;;;;;;;;19.60;53.80;;;;;;5043485;28;19933;-70
2023/09/21 06:01:07;;;;;;;;;;;19.60;53.50;;;;;;5041609;28;19963;-64
2023/09/21 06:03:35;;;;;;;;;;;19.60;54.10;;;;;;5045135;28;19943;-65
2023/09/21 06:06:07;;;;;;;;;;;19.60;53.60;;;;;;5046855;28;19925;-67
2023/09/21 06:08:37;;;;;;;;;;;19.50;54.90;;;;;;5038960;28;19944;-66
2023/09/21 06:11:04;;;;;;;;;;;19.50;55.10;;;;;;5049290;28;20274;-65
2023/09/21 06:13:32;;;;;;;;;;;19.50;57.00;;;;;;5042631;28;19933;-67
2023/09/21 06:16:02;;;;;;;;;;;19.50;56.90;;;;;;5051239;28;20384;-66
2023/09/21 06:18:29;;;;;;;;;;;19.40;57.80;;;;;;5040641;28;19959;-66
2023/09/21 06:20:58;;;;;;;;;;;19.40;57.10;;;;;;5046182;28;20012;-67
2023/09/21 06:23:25;;;;;;;;;;;19.40;57.10;;;;;;5044769;28;20281;-70
2023/09/21 06:25:52;;;;;;;;;;;19.40;56.20;;;;;;5042603;28;19937;-65
2023/09/21 06:28:21;;;;;;;;;;;19.40;56.00;;;;;;5038304;28;19956;-63
2023/09/21 06:30:51;;;;;;;;;;;19.30;56.40;;;;;;5044508;28;19943;-63
2023/09/21 06:33:18;;;;;;;;;;;19.30;56.90;;;;;;5045395;28;20035;-63
2023/09/21 06:35:45;;;;;;;;;;;19.20;59.10;;;;;;5042649;28;19932;-63
2023/09/21 06:38:13;;;;;;;;;;;19.20;58.50;;;;;;5039738;28;20320;-70
2023/09/21 06:40:43;;;;;;;;;;;19.10;56.30;;;;;;5043329;28;20320;-65
2023/09/21 06:43:12;;;;;;;;;;;19.10;56.60;;;;;;5042964;28;19933;-63
2023/09/21 06:45:40;;;;;;;;;;;19.10;54.80;;;;;;5049040;28;19928;-62
2023/09/21 06:48:11;;;;;;;;;;;19.10;55.30;;;;;;5043865;28;19940;-64
2023/09/21 06:50:40;;;;;;;;;;;19.10;55.20;;;;;;5041852;28;19933;-64
2023/09/21 06:53:07;;;;;;;;;;;19.10;55.70;;;;;;5044454;28;19933;-65
2023/09/21 06:55:35;;;;;;;;;;;19.10;58.30;;;;;;5043091;28;19933;-65
2023/09/21 06:58:02;;;;;;;;;;;19.10;59.30;;;;;;5045370;28;19982;-67
2023/09/21 07:00:30;;;;;;;;;;;19.10;58.50;;;;;;5040898;28;19978;-66
2023/09/21 07:02:57;;;;;;;;;;;19.10;57.70;;;;;;5039136;28;20278;-67
2023/09/21 07:05:24;;;;;;;;;;;19.10;58.60;;;;;;5043466;28;19939;-67
2023/09/21 07:07:53;;;;;;;;;;;19.10;59.70;;;;;;5040224;28;19932;-68
2023/09/21 07:10:20;;;;;;;;;;;19.10;59.00;;;;;;5041193;28;20279;-64
2023/09/21 07:12:48;;;;;;;;;;;19.10;58.20;;;;;;5041131;28;19929;-67
2023/09/21 07:15:15;;;;;;;;;;;19.10;58.90;;;;;;5045010;28;20005;-66
2023/09/21 07:17:42;;;;;;;;;;;19.10;58.10;;;;;;5044032;28;19933;-67
2023/09/21 07:20:11;;;;;;;;;;;19.10;59.90;;;;;;5042243;28;20293;-70
2023/09/21 07:22:39;;;;;;;;;;;19.10;61.10;;;;;;5041555;28;19933;-67
2023/09/21 07:25:09;;;;;;;;;;;19.10;60.10;;;;;;5046570;28;20006;-68
2023/09/21 07:27:36;;;;;;;;;;;19.10;61.40;;;;;;5043536;28;19928;-68
2023/09/21 07:30:04;;;;;;;;;;;19.10;60.10;;;;;;5045730;28;20027;-69
2023/09/21 07:32:32;;;;;;;;;;;19.10;60.90;;;;;;5025493;28;20012;-69
2023/09/21 07:34:59;;;;;;;;;;;19.10;60.60;;;;;;5041784;28;19994;-69
2023/09/21 07:37:28;;;;;;;;;;;19.10;61.10;;;;;;5039313;28;19944;-68
2023/09/21 07:39:55;;;;;;;;;;;19.10;60.90;;;;;;5039967;28;19944;-67
2023/09/21 07:42:22;;;;;;;;;;;19.10;61.40;;;;;;5042189;28;19925;-69
2023/09/21 07:44:49;;;;;;;;;;;19.20;61.00;;;;;;5040191;28;19931;-67
2023/09/21 07:47:17;;;;;;;;;;;19.20;62.50;;;;;;5046077;28;19994;-67
2023/09/21 07:49:44;;;;;;;;;;;19.20;61.80;;;;;;5043775;28;19928;-68
2023/09/21 07:52:12;;;;;;;;;;;19.20;61.30;;;;;;5044888;28;19936;-67
2023/09/21 07:54:39;;;;;;;;;;;19.20;60.90;;;;;;5038254;28;19932;-67
2023/09/21 07:57:08;;;;;;;;;;;19.30;60.00;;;;;;5042110;28;19940;-67
2023/09/21 07:59:36;;;;;;;;;;;19.30;61.10;;;;;;5044947;28;19978;-68
2023/09/21 08:02:03;;;;;;;;;;;19.30;60.00;;;;;;5042315;28;21284;-69
2023/09/21 08:04:30;;;;;;;;;;;19.40;60.40;;;;;;5040663;28;20357;-69
2023/09/21 08:06:59;;;;;;;;;;;19.40;60.30;;;;;;5038812;28;19939;-66
2023/09/21 08:09:26;;;;;;;;;;;19.40;60.80;;;;;;5039823;28;19933;-65
2023/09/21 08:11:59;;;;;;;;;;;19.40;61.10;;;;;;5040827;28;19939;-66
2023/09/21 08:14:27;;;;;;;;;;;19.50;60.80;;;;;;5042078;28;19933;-64
2023/09/21 08:16:54;;;;;;;;;;;19.40;59.30;;;;;;5044052;28;19944;-65
2023/09/21 08:19:21;;;;;;;;;;;19.40;59.90;;;;;;5041906;28;19933;-64
2023/09/21 08:21:49;;;;;;;;;;;19.50;60.50;;;;;;5041298;28;19929;-67
2023/09/21 08:24:16;;;;;;;;;;;19.50;58.50;;;;;;5041580;28;19940;-67
2023/09/21 08:26:43;;;;;;;;;;;19.50;59.40;;;;;;5041448;28;19963;-67
2023/09/21 08:29:12;;;;;;;;;;;19.50;59.40;;;;;;5042514;28;19958;-66
2023/09/21 08:31:41;;;;;;;;;;;19.50;57.70;;;;;;5044244;28;19944;-69
2023/09/21 08:34:08;;;;;;;;;;;19.60;58.30;;;;;;5061257;28;19933;-69
2023/09/21 08:36:36;;;;;;;;;;;19.60;57.60;;;;;;5043452;28;19925;-68
2023/09/21 08:39:04;;;;;;;;;;;19.60;58.50;;;;;;5043722;28;19933;-69
2023/09/21 08:41:34;;;;;;;;;;;19.60;60.70;;;;;;5047631;28;19937;-69
2023/09/21 08:44:02;;;;;;;;;;;19.60;59.70;;;;;;5043818;28;19986;-70
2023/09/21 08:46:30;;;;;;;;;;;19.60;59.50;;;;;;5048340;28;19925;-69
2023/09/21 08:49:00;;;;;;;;;;;19.60;60.30;;;;;;5048350;28;19948;-68
2023/09/21 08:51:28;;;;;;;;;;;19.60;60.10;;;;;;5048642;28;19929;-67
2023/09/21 08:53:59;;;;;;;;;;;19.60;60.10;;;;;;5047647;28;19925;-68
2023/09/21 08:56:27;;;;;;;;;;;19.60;59.70;;;;;;5044772;28;19943;-68
2023/09/21 08:58:57;;;;;;;;;;;19.60;59.30;;;;;;5044460;28;19925;-68
2023/09/21 09:01:24;;;;;;;;;;;19.60;59.10;;;;;;5054075;28;19929;-66
2023/09/21 09:03:51;;;;;;;;;;;19.60;59.90;;;;;;5045623;28;19939;-66
2023/09/21 09:06:19;;;;;;;;;;;19.60;60.00;;;;;;5044206;28;19968;-66
2023/09/21 09:08:46;;;;;;;;;;;19.60;59.00;;;;;;5044741;28;19971;-66
2023/09/21 09:11:34;;;;;;;;;;;19.60;58.60;;;;;;5045497;28;20373;-65
2023/09/21 09:14:10;;;;;;;;;;;19.70;60.90;;;;;;5057295;28;20032;-64
2023/09/21 09:16:37;;;;;;;;;;;19.60;61.10;;;;;;5048253;28;19932;-66
2023/09/21 09:19:09;;;;;;;;;;;19.70;60.60;;;;;;5051235;28;19932;-64
2023/09/21 09:21:37;;;;;;;;;;;19.70;59.80;;;;;;5056586;28;20417;-64
2023/09/21 09:24:04;;;;;;;;;;;19.70;60.40;;;;;;5047659;28;19932;-64
2023/09/21 09:26:32;;;;;;;;;;;19.80;60.90;;;;;;5038301;28;20369;-64
2023/09/21 09:29:03;;;;;;;;;;;19.80;60.60;;;;;;5043353;28;19952;-68
2023/09/21 09:31:31;;;;;;;;;;;19.80;59.80;;;;;;5046491;28;20315;-65
2023/09/21 09:33:59;;;;;;;;;;;19.80;60.20;;;;;;5046941;28;19924;-66
2023/09/21 09:36:27;;;;;;;;;;;19.80;60.70;;;;;;5051606;28;19925;-67
2023/09/21 09:38:55;;;;;;;;;;;19.80;60.50;;;;;;5044495;28;19929;-67
2023/09/21 09:41:23;;;;;;;;;;;19.80;60.70;;;;;;5048392;28;19925;-68
2023/09/21 09:43:53;;;;;;;;;;;19.90;60.80;;;;;;5047854;28;19932;-67
2023/09/21 09:46:22;;;;;;;;;;;19.90;60.90;;;;;;5049888;28;20367;-66
2023/09/21 09:48:52;;;;;;;;;;;19.90;60.40;;;;;;5050810;28;19932;-67
2023/09/21 09:51:25;;;;;;;;;;;20.00;60.40;;;;;;5047502;28;19936;-70
2023/09/21 09:53:53;;;;;;;;;;;19.90;60.60;;;;;;5047213;28;20380;-66
2023/09/21 09:56:22;;;;;;;;;;;19.90;60.60;;;;;;5050800;28;19929;-69
2023/09/21 09:58:50;;;;;;;;;;;19.90;60.50;;;;;;5046953;28;19925;-67
2023/09/21 10:01:17;;;;;;;;;;;20.00;60.60;;;;;;5048216;28;20407;-70
2023/09/21 10:03:50;;;;;;;;;;;19.90;60.30;;;;;;5039154;28;19933;-68
2023/09/21 10:06:18;;;;;;;;;;;20.00;60.60;;;;;;5045281;28;20033;-68
2023/09/21 10:08:46;;;;;;;;;;;20.00;60.80;;;;;;5042568;28;20381;-68
2023/09/21 10:11:15;;;;;;;;;;;20.00;60.90;;;;;;5047067;28;19928;-69
2023/09/21 10:13:48;;;;;;;;;;;20.00;61.00;;;;;;5048411;28;19925;-68
2023/09/21 10:16:17;;;;;;;;;;;20.00;60.20;;;;;;5049912;28;19952;-70
2023/09/21 10:18:44;;;;;;;;;;;20.00;60.10;;;;;;5046122;28;19943;-68
2023/09/21 10:21:31;;;;;;;;;;;20.00;59.90;;;;;;5044960;28;19940;-68
2023/09/21 10:24:06;;;;;;;;;;;20.00;59.90;;;;;;5041587;28;19935;-68
2023/09/21 10:26:34;;;;;;;;;;;20.00;59.90;;;;;;5061986;28;19928;-68
2023/09/21 10:29:05;;;;;;;;;;;20.00;59.70;;;;;;5048699;28;19990;-66
2023/09/21 10:31:33;;;;;;;;;;;20.00;59.50;;;;;;5048746;28;19925;-68
2023/09/21 10:34:04;;;;;;;;;;;20.00;59.40;;;;;;5041918;28;19928;-67
2023/09/21 10:36:36;;;;;;;;;;;20.00;59.50;;;;;;5048555;28;20254;-70
2023/09/21 10:39:13;;;;;;;;;;;20.00;59.40;;;;;;5046941;28;19931;-69
2023/09/21 10:41:43;;;;;;;;;;;20.00;59.80;;;;;;5047541;28;19975;-69
2023/09/21 10:44:12;;;;;;;;;;;20.00;61.10;;;;;;5046758;28;19933;-69
2023/09/21 10:46:41;;;;;;;;;;;20.00;60.40;;;;;;5047746;28;20366;-69
2023/09/21 10:49:14;;;;;;;;;;;20.00;60.00;;;;;;5041552;28;20292;-69
2023/09/21 10:51:43;;;;;;;;;;;20.00;60.10;;;;;;5047244;28;19979;-70
2023/09/21 10:54:13;;;;;;;;;;;20.10;59.70;;;;;;5047367;28;20262;-68
2023/09/21 10:56:44;;;;;;;;;;;20.10;59.80;;;;;;5047202;28;19929;-69
2023/09/21 10:59:12;;;;;;;;;;;20.10;59.60;;;;;;5044829;28;19945;-69
2023/09/21 11:01:39;;;;;;;;;;;20.10;59.50;;;;;;5040214;28;20011;-65
2023/09/21 11:04:07;;;;;;;;;;;20.10;59.30;;;;;;5041150;28;19933;-64
2023/09/21 11:06:34;;;;;;;;;;;20.10;59.70;;;;;;5041197;28;19933;-65
2023/09/21 11:09:02;;;;;;;;;;;20.10;58.90;;;;;;5047698;28;19933;-64
2023/09/21 11:11:29;;;;;;;;;;;20.00;59.70;;;;;;5040511;28;19924;-63
2023/09/21 11:13:59;;;;;;;;;;;20.00;59.80;;;;;;5048606;28;19928;-64
2023/09/21 11:16:27;;;;;;;;;;;20.00;60.50;;;;;;5043861;28;19937;-63
2023/09/21 11:18:55;;;;;;;;;;;20.00;60.40;;;;;;5042184;28;19976;-64
2023/09/21 11:21:22;;;;;;;;;;;20.00;60.30;;;;;;5044208;28;19933;-65
2023/09/21 11:23:50;;;;;;;;;;;20.00;60.60;;;;;;5043759;28;20385;-65
2023/09/21 11:26:22;;;;;;;;;;;20.10;60.80;;;;;;5043852;28;19979;-65
2023/09/21 11:28:57;;;;;;;;;;;20.10;60.80;;;;;;5043936;28;19932;-66
2023/09/21 11:31:27;;;;;;;;;;;20.10;60.80;;;;;;5042934;28;19986;-65
2023/09/21 11:34:02;;;;;;;;;;;20.20;60.90;;;;;;5060889;28;20064;-65
2023/09/21 11:36:29;;;;;;;;;;;20.20;61.10;;;;;;5045135;28;19940;-65
2023/09/21 11:38:59;;;;;;;;;;;20.20;61.30;;;;;;5048487;28;19955;-66
2023/09/21 11:41:27;;;;;;;;;;;20.30;61.10;;;;;;5046989;28;20333;-63
2023/09/21 11:43:54;;;;;;;;;;;20.30;61.20;;;;;;5048722;28;19933;-63
2023/09/21 11:46:21;;;;;;;;;;;20.40;61.10;;;;;;5050362;28;20503;-65
2023/09/21 11:48:49;;;;;;;;;;;20.40;61.30;;;;;;5051384;28;20346;-63
2023/09/21 11:51:17;;;;;;;;;;;20.40;61.20;;;;;;5051246;28;19931;-64
2023/09/21 11:53:45;;;;;;;;;;;20.50;61.60;;;;;;5050368;28;19929;-66
2023/09/21 11:56:12;;;;;;;;;;;20.50;61.30;;;;;;5046130;28;19925;-64
2023/09/21 11:58:43;;;;;;;;;;;20.60;61.20;;;;;;5048762;28;19928;-62
2023/09/21 12:01:19;;;;;;;;;;;20.60;61.30;;;;;;5031622;28;19928;-64
2023/09/21 12:03:52;;;;;;;;;;;20.60;61.20;;;;;;5045166;28;19956;-64
2023/09/21 12:06:19;;;;;;;;;;;20.70;60.90;;;;;;5043586;28;19929;-67
2023/09/21 12:08:49;;;;;;;;;;;20.70;61.20;;;;;;5044248;28;20343;-64
2023/09/21 12:11:17;;;;;;;;;;;20.80;60.30;;;;;;5048628;28;20427;-65
2023/09/21 12:13:45;;;;;;;;;;;20.90;60.30;;;;;;5047980;28;19925;-64
2023/09/21 12:16:12;;;;;;;;;;;20.90;60.40;;;;;;5042745;28;19991;-67
2023/09/21 12:18:39;;;;;;;;;;;20.90;61.00;;;;;;5045136;28;19932;-68
2023/09/21 12:21:07;;;;;;;;;;;20.90;60.70;;;;;;5049763;28;19952;-65
2023/09/21 12:23:35;;;;;;;;;;;21.00;60.50;;;;;;5052586;28;20016;-64
2023/09/21 12:26:02;;;;;;;;;;;21.00;60.60;;;;;;5061503;28;19959;-61
2023/09/21 12:28:30;;;;;;;;;;;21.00;60.50;;;;;;5052057;28;19994;-64
2023/09/21 12:30:57;;;;;;;;;;;21.00;60.20;;;;;;5049477;28;19979;-66
2023/09/21 12:33:25;;;;;;;;;;;21.00;59.50;;;;;;5047847;28;19933;-64
2023/09/21 12:36:12;;;;;;;;;;;21.00;60.40;;;;;;5051996;28;19936;-63
2023/09/21 12:38:52;;;;;;;;;;;21.10;60.70;;;;;;5048797;28;19936;-63
2023/09/21 12:41:20;;;;;;;;;;;21.10;60.50;;;;;;5044047;28;19929;-64
2023/09/21 12:43:47;;;;;;;;;;;21.10;60.30;;;;;;5047383;28;19925;-65
2023/09/21 12:46:15;;;;;;;;;;;21.20;60.40;;;;;;5045880;28;19933;-66
2023/09/21 12:48:42;;;;;;;;;;;21.20;60.10;;;;;;5029915;28;19929;-69
2023/09/21 12:51:10;;;;;;;;;;;21.20;60.10;;;;;;5050314;28;19995;-67
2023/09/21 12:53:37;;;;;;;;;;;21.20;59.90;;;;;;5043851;28;20668;-65
2023/09/21 12:56:05;;;;;;;;;;;21.20;59.80;;;;;;5048763;28;19936;-66
2023/09/21 12:58:33;;;;;;;;;;;21.20;60.10;;;;;;5051475;28;20378;-65
2023/09/21 13:01:00;;;;;;;;;;;21.20;60.40;;;;;;5046079;28;20382;-64
2023/09/21 13:03:28;;;;;;;;;;;21.10;60.80;;;;;;5050356;28;19924;-65
2023/09/21 13:05:55;;;;;;;;;;;21.20;60.60;;;;;;5052117;28;19956;-65
2023/09/21 13:08:22;;;;;;;;;;;21.20;60.30;;;;;;5049198;28;19929;-64
2023/09/21 13:10:50;;;;;;;;;;;21.10;60.50;;;;;;5069335;28;19925;-64
2023/09/21 13:13:20;;;;;;;;;;;21.20;60.30;;;;;;5047199;28;19970;-64
2023/09/21 13:15:49;;;;;;;;;;;21.20;60.00;;;;;;5048115;28;20011;-64
2023/09/21 13:18:17;;;;;;;;;;;21.20;60.30;;;;;;5046763;28;19940;-64
2023/09/21 13:20:47;;;;;;;;;;;21.20;60.00;;;;;;5045750;28;20305;-63
2023/09/21 13:23:14;;;;;;;;;;;21.20;60.10;;;;;;5046340;28;19947;-63
2023/09/21 13:25:42;;;;;;;;;;;21.20;60.00;;;;;;5049790;28;19951;-63
2023/09/21 13:28:09;;;;;;;;;;;21.20;60.00;;;;;;5044785;28;20282;-63
2023/09/21 13:30:36;;;;;;;;;;;21.20;60.00;;;;;;5063926;28;19986;-63
2023/09/21 13:33:06;;;;;;;;;;;21.20;60.30;;;;;;5048941;28;19924;-63
2023/09/21 13:35:33;;;;;;;;;;;21.20;60.00;;;;;;5051267;28;19929;-63
2023/09/21 13:38:00;;;;;;;;;;;21.20;60.30;;;;;;5043996;28;20032;-63
2023/09/21 13:40:29;;;;;;;;;;;21.20;60.50;;;;;;5044934;28;19948;-63
2023/09/21 13:42:57;;;;;;;;;;;21.20;60.30;;;;;;5044791;28;19929;-65
2023/09/21 13:45:24;;;;;;;;;;;21.10;60.30;;;;;;5043503;28;19933;-65
2023/09/21 13:47:53;;;;;;;;;;;21.10;60.50;;;;;;5048122;28;20377;-65
2023/09/21 13:50:27;;;;;;;;;;;21.00;60.40;;;;;;5061016;28;19936;-65
2023/09/21 13:52:54;;;;;;;;;;;21.00;60.80;;;;;;5040110;28;20021;-66
2023/09/21 13:55:22;;;;;;;;;;;21.00;60.60;;;;;;5049301;28;20301;-66
2023/09/21 13:57:52;;;;;;;;;;;21.00;60.80;;;;;;5046843;28;19980;-66
2023/09/21 14:00:21;;;;;;;;;;;21.00;60.90;;;;;;5051353;28;19944;-64
2023/09/21 14:02:48;;;;;;;;;;;20.90;60.70;;;;;;5041678;28;20430;-64
2023/09/21 14:05:18;;;;;;;;;;;20.90;61.40;;;;;;5040806;28;19935;-64
2023/09/21 14:07:46;;;;;;;;;;;21.00;69.30;;;;;;5040614;28;20018;-64
2023/09/21 14:10:14;;;;;;;;;;;21.20;74.20;;;;;;5048811;28;20389;-64
2023/09/21 14:12:41;;;;;;;;;;;21.40;76.00;;;;;;5046408;28;19928;-64
2023/09/21 14:15:11;;;;;;;;;;;21.70;76.60;;;;;;5042686;28;19959;-64
2023/09/21 14:17:39;;;;;;;;;;;21.90;76.60;;;;;;5037993;28;19933;-64
2023/09/21 14:20:08;;;;;;;;;;;22.10;76.30;;;;;;5039443;28;19955;-65
2023/09/21 14:22:37;;;;;;;;;;;22.30;76.10;;;;;;5040601;28;19932;-65
2023/09/21 14:25:05;;;;;;;;;;;22.50;75.80;;;;;;5048391;28;19929;-65